Pagina principale
METAR-TAF:

METAR-TAF

Aeroporti :

Aeroporto di Zagabria-Franjo Tuđman

Zagabria, Croazia

latitudine: 45-44N, longitudine: 016-04E, altezza: 106 m

Osservazione

Il bollettino è stato emesso 22 minuti fa, alle 17:30 UTC
Vento 2 kt da direzioni variabili
Temperature 14°C
Umidità 77%
Pressione 1016 hPa
Visibilità 10 km o più
Poco nuvoloso ad un'altezza di 4500 ft
pioggia debole

METAR: LDZA 311730Z VRB02KT 9999 -RA FEW045 14/10 Q1016 NOSIG

Ora: 19:52 (17:52 UTC)

Previsione

Il bollettino è stato emesso 27 minuti fa, alle 17:25 UTC
Previsione valida dal 31 alle 18 UTC al 01 alle 18 UTC
Vento 5 kt da ovest/nord-ovest
Visibilità 10 km o più
nessuna nube inferiore a 1500 m e nessun cumulonembo
Temporaneamente
dal 31 alle 18 UTC al 31 alle 23 UTC
pioggia
Evoluzione graduale
dal 01 alle 06 UTC al 01 alle 08 UTC
Vento 10 kt da nord/nord-est

TAF: LDZA 311725Z 3118/0118 30005KT CAVOK TX20/0113Z TN10/0104Z TEMPO 3118/3123 RA BECMG 0106/0108 02010KT

Osservazioni e previsioni meteorologiche di più di 4000 aeroporti (messaggi METAR e TAF).

Le stazioni disponibili sono rappresentate dai dischi gialli e rossi sulla carta.

Puntare il mouse per vedere il nome della stazione.

Clicca sopra per visualizzare le osservazioni e previsioni meteorologiche.

Per cambiare la mappa : fare clic sui pulsanti verdi con una croce nera per ingrandire, il pulsante verde con un trattino per diminuire, o sulla freccia verde per le mappe adiacenti.


METAR-TAF: